createdAt,value
2018-05-18T00:00:42.171Z,65.26
2018-05-18T00:01:42.230Z,65.04
2018-05-18T00:02:42.165Z,65.08
2018-05-18T00:03:42.191Z,65.36
2018-05-18T00:04:42.463Z,64.69
2018-05-18T00:05:42.257Z,64.88
2018-05-18T00:06:42.217Z,64.79
2018-05-18T00:07:42.322Z,64.79
2018-05-18T00:08:42.363Z,64.98
2018-05-18T00:09:42.269Z,65.08
2018-05-18T00:10:42.240Z,66.09
2018-05-18T00:11:42.266Z,65.61
2018-05-18T00:12:42.269Z,65.61
2018-05-18T00:13:42.310Z,65.90
2018-05-18T00:14:42.313Z,65.42
2018-05-18T00:15:42.389Z,65.81
2018-05-18T00:16:42.315Z,65.81
2018-05-18T00:17:42.385Z,65.52
2018-05-18T00:18:42.347Z,65.52
2018-05-18T00:19:42.351Z,65.94
2018-05-18T00:20:42.399Z,65.42
2018-05-18T00:21:42.367Z,65.61
2018-05-18T00:22:42.427Z,65.61
2018-05-18T00:23:42.395Z,65.52
2018-05-18T00:24:42.401Z,65.42
2018-05-18T00:25:42.391Z,65.52
2018-05-18T00:26:43.296Z,65.71
2018-05-18T00:27:42.440Z,65.42
2018-05-18T00:28:42.522Z,65.71
2018-05-18T00:29:42.492Z,65.52
2018-05-18T00:30:42.489Z,65.90
2018-05-18T00:31:42.509Z,66.09
2018-05-18T00:32:42.501Z,66.09
2018-05-18T00:33:42.505Z,66.19
2018-05-18T00:34:42.619Z,66.57
2018-05-18T00:35:42.523Z,66.28
2018-05-18T00:36:42.528Z,66.09
2018-05-18T00:37:42.522Z,66.47
2018-05-18T00:38:42.642Z,66.86
2018-05-18T00:39:42.535Z,66.76
2018-05-18T00:40:42.554Z,66.76
2018-05-18T00:41:42.975Z,67.24
2018-05-18T00:42:42.617Z,67.05
2018-05-18T00:43:42.714Z,66.76
2018-05-18T00:44:42.581Z,67.05
2018-05-18T00:45:42.690Z,67.05
2018-05-18T00:46:42.622Z,67.40
2018-05-18T00:47:42.643Z,67.40
2018-05-18T00:48:42.643Z,67.14
2018-05-18T00:49:42.659Z,67.05
2018-05-18T00:50:42.706Z,67.49
2018-05-18T00:51:42.671Z,67.63
2018-05-18T00:52:42.681Z,67.53
2018-05-18T00:53:42.691Z,67.30
2018-05-18T00:54:42.743Z,67.21
2018-05-18T00:55:42.741Z,68.07
2018-05-18T00:56:42.706Z,67.59
2018-05-18T00:57:42.757Z,67.34
2018-05-18T00:58:42.724Z,67.40
2018-05-18T00:59:42.741Z,67.59
2018-05-18T01:00:42.815Z,67.78
2018-05-18T01:01:42.770Z,66.96
2018-05-18T01:02:42.771Z,67.05
2018-05-18T01:03:42.810Z,66.86
2018-05-18T01:04:42.787Z,66.83
2018-05-18T01:05:42.826Z,66.57
2018-05-18T01:06:42.820Z,66.38
2018-05-18T01:07:42.828Z,66.57
2018-05-18T01:08:42.856Z,67.05
2018-05-18T01:09:42.885Z,66.92
2018-05-18T01:10:42.869Z,66.73
2018-05-18T01:11:42.918Z,67.11
2018-05-18T01:12:42.862Z,67.02
2018-05-18T01:13:42.929Z,67.30
2018-05-18T01:14:42.894Z,67.40
2018-05-18T01:15:42.900Z,67.21
2018-05-18T01:16:42.906Z,67.59
2018-05-18T01:17:42.959Z,67.40
2018-05-18T01:18:43.130Z,67.30
2018-05-18T01:19:42.963Z,67.59
2018-05-18T01:20:42.948Z,67.59
2018-05-18T01:21:42.948Z,67.30
2018-05-18T01:22:42.989Z,67.49
2018-05-18T01:23:42.995Z,67.05
2018-05-18T01:24:43.000Z,67.05
2018-05-18T01:25:43.483Z,66.76
2018-05-18T01:26:43.020Z,66.73
2018-05-18T01:27:43.029Z,67.14
2018-05-18T01:28:43.035Z,67.11
2018-05-18T01:29:43.104Z,66.86
2018-05-18T01:30:43.106Z,67.02
2018-05-18T01:31:43.054Z,66.47
2018-05-18T01:32:43.521Z,67.05
2018-05-18T01:33:43.086Z,66.76
2018-05-18T01:34:43.071Z,66.76
2018-05-18T01:35:43.177Z,66.96
2018-05-18T01:36:43.120Z,66.09
2018-05-18T01:37:43.166Z,66.76
2018-05-18T01:38:43.128Z,66.47
2018-05-18T01:39:43.157Z,66.96
2018-05-18T01:40:43.191Z,66.00
2018-05-18T01:41:43.170Z,66.86
2018-05-18T01:42:43.247Z,66.54
2018-05-18T01:43:43.210Z,66.44
2018-05-18T01:44:43.214Z,66.76
2018-05-18T01:45:43.211Z,66.76
2018-05-18T01:46:43.212Z,66.54
2018-05-18T01:47:43.226Z,66.73
2018-05-18T01:48:43.285Z,66.35
2018-05-18T01:49:43.505Z,66.57
2018-05-18T01:50:43.253Z,66.38
2018-05-18T01:51:43.259Z,66.44
2018-05-18T01:52:43.313Z,66.63
2018-05-18T01:53:43.275Z,66.92
2018-05-18T01:54:43.339Z,66.47
2018-05-18T01:55:43.293Z,67.02
2018-05-18T01:56:43.620Z,66.73
2018-05-18T01:57:43.335Z,67.02
2018-05-18T01:58:43.336Z,67.11
2018-05-18T01:59:43.330Z,67.30
2018-05-18T02:00:43.335Z,67.40
2018-05-18T02:01:43.361Z,67.49
2018-05-18T02:02:43.402Z,67.49
2018-05-18T02:03:43.366Z,67.59
2018-05-18T02:04:43.396Z,67.30
2018-05-18T02:05:43.436Z,66.73
2018-05-18T02:06:43.472Z,67.02
2018-05-18T02:07:43.460Z,66.73
2018-05-18T02:08:43.419Z,66.73
2018-05-18T02:09:43.439Z,66.44
2018-05-18T02:10:43.436Z,66.63
2018-05-18T02:11:43.449Z,66.54
2018-05-18T02:12:43.525Z,67.11
2018-05-18T02:13:43.736Z,67.30
2018-05-18T02:14:43.469Z,67.49
2018-05-18T02:15:43.494Z,67.02
2018-05-18T02:16:43.501Z,67.02
2018-05-18T02:17:43.510Z,66.83
2018-05-18T02:18:43.571Z,66.73
2018-05-18T02:19:43.537Z,66.92
2018-05-18T02:20:44.055Z,67.02
2018-05-18T02:21:43.558Z,67.49
2018-05-18T02:22:43.557Z,67.40
2018-05-18T02:23:43.655Z,67.59
2018-05-18T02:24:43.706Z,67.69
2018-05-18T02:25:43.601Z,67.30
2018-05-18T02:26:43.609Z,67.59
2018-05-18T02:27:43.881Z,67.40
2018-05-18T02:28:43.621Z,67.40
2018-05-18T02:29:43.654Z,67.69
2018-05-18T02:30:43.662Z,67.59
2018-05-18T02:31:43.679Z,67.40
2018-05-18T02:32:43.646Z,67.49
2018-05-18T02:33:43.669Z,67.40
2018-05-18T02:34:43.688Z,67.49
2018-05-18T02:35:43.683Z,66.92
2018-05-18T02:36:43.711Z,67.59
2018-05-18T02:37:44.097Z,67.59
2018-05-18T02:38:43.707Z,67.49
2018-05-18T02:39:43.744Z,67.49
2018-05-18T02:40:43.766Z,67.40
2018-05-18T02:41:43.776Z,67.78
2018-05-18T02:42:43.989Z,67.40
2018-05-18T02:43:43.747Z,68.07
2018-05-18T02:44:43.900Z,67.40
2018-05-18T02:45:43.800Z,67.97
2018-05-18T02:46:43.799Z,67.78
2018-05-18T02:47:43.851Z,67.21
2018-05-18T02:48:43.844Z,67.40
2018-05-18T02:49:43.805Z,67.30
2018-05-18T02:50:43.813Z,67.97
2018-05-18T02:51:43.833Z,67.88
2018-05-18T02:52:43.953Z,67.69
2018-05-18T02:53:43.845Z,68.07
2018-05-18T02:54:44.053Z,67.88
2018-05-18T02:55:43.871Z,68.16
2018-05-18T02:56:43.953Z,67.78
2018-05-18T02:57:43.882Z,68.07
2018-05-18T02:58:43.892Z,68.07
2018-05-18T02:59:43.897Z,67.88
2018-05-18T03:00:43.954Z,67.88
2018-05-18T03:01:44.421Z,67.78
2018-05-18T03:02:43.993Z,68.16
2018-05-18T03:03:43.958Z,68.45
2018-05-18T03:04:43.954Z,67.78
2018-05-18T03:05:43.973Z,68.55
2018-05-18T03:06:44.019Z,67.59
2018-05-18T03:07:43.988Z,67.59
2018-05-18T03:08:44.034Z,67.88
2018-05-18T03:09:44.008Z,67.88
2018-05-18T03:10:44.023Z,67.88
2018-05-18T03:11:44.390Z,68.16
2018-05-18T03:12:44.033Z,68.16
2018-05-18T03:13:44.106Z,67.69
2018-05-18T03:14:44.050Z,67.69
2018-05-18T03:15:44.079Z,67.59
2018-05-18T03:16:44.120Z,67.69
2018-05-18T03:17:44.104Z,67.59
2018-05-18T03:18:44.088Z,67.49
2018-05-18T03:19:44.139Z,67.59
2018-05-18T03:20:44.125Z,67.40
2018-05-18T03:21:44.120Z,67.49
2018-05-18T03:22:44.125Z,67.69
2018-05-18T03:23:44.165Z,67.59
2018-05-18T03:24:44.172Z,67.49
2018-05-18T03:25:44.178Z,67.30
2018-05-18T03:26:44.183Z,67.30
2018-05-18T03:27:44.196Z,67.11
2018-05-18T03:28:44.549Z,67.02
2018-05-18T03:29:44.223Z,67.30
2018-05-18T03:30:44.210Z,67.21
2018-05-18T03:31:44.220Z,67.69
2018-05-18T03:32:44.335Z,67.30
2018-05-18T03:33:44.230Z,66.92
2018-05-18T03:34:44.271Z,66.83
2018-05-18T03:35:44.289Z,66.73
2018-05-18T03:36:44.321Z,67.02
2018-05-18T03:37:44.261Z,67.40
2018-05-18T03:38:44.320Z,67.02
2018-05-18T03:39:44.316Z,66.73
2018-05-18T03:40:44.366Z,67.21
2018-05-18T03:41:44.303Z,67.21
2018-05-18T03:42:44.310Z,67.30
2018-05-18T03:43:44.332Z,67.30
2018-05-18T03:44:44.343Z,67.02
2018-05-18T03:45:44.379Z,67.40
2018-05-18T03:46:44.494Z,67.11
2018-05-18T03:47:44.375Z,67.69
2018-05-18T03:48:44.378Z,67.49
2018-05-18T03:49:44.393Z,67.78
2018-05-18T03:50:44.464Z,66.92
2018-05-18T03:51:44.478Z,67.49
2018-05-18T03:52:44.532Z,67.21
2018-05-18T03:53:44.439Z,66.92
2018-05-18T03:54:44.477Z,66.92
2018-05-18T03:55:44.449Z,67.21
2018-05-18T03:56:44.467Z,66.83
2018-05-18T03:57:44.517Z,66.83
2018-05-18T03:58:44.470Z,66.63
2018-05-18T03:59:44.480Z,66.44
2018-05-18T04:00:44.488Z,66.54
2018-05-18T04:01:44.531Z,66.63
2018-05-18T04:02:44.557Z,66.76
2018-05-18T04:03:44.890Z,66.73
2018-05-18T04:04:44.526Z,66.73
2018-05-18T04:05:44.577Z,66.44
2018-05-18T04:06:44.545Z,66.92
2018-05-18T04:07:44.699Z,65.97
2018-05-18T04:08:44.592Z,66.44
2018-05-18T04:09:44.584Z,65.97
2018-05-18T04:10:44.597Z,66.16
2018-05-18T04:11:44.588Z,66.19
2018-05-18T04:12:44.681Z,66.47
2018-05-18T04:13:44.980Z,66.57
2018-05-18T04:14:44.623Z,66.38
2018-05-18T04:15:44.639Z,66.38
2018-05-18T04:16:44.651Z,66.28
2018-05-18T04:17:44.655Z,66.00
2018-05-18T04:18:44.729Z,66.38
2018-05-18T04:19:44.702Z,66.25
2018-05-18T04:20:44.679Z,66.35
2018-05-18T04:21:44.704Z,66.35
2018-05-18T04:22:44.704Z,66.09
2018-05-18T04:23:44.882Z,66.09
2018-05-18T04:24:44.733Z,65.52
2018-05-18T04:25:44.745Z,65.42
2018-05-18T04:26:44.766Z,65.52
2018-05-18T04:27:44.780Z,65.90
2018-05-18T04:28:44.814Z,65.71
2018-05-18T04:29:44.785Z,65.90
2018-05-18T04:30:44.811Z,65.81
2018-05-18T04:31:44.799Z,65.61
2018-05-18T04:32:44.856Z,66.09
2018-05-18T04:33:44.974Z,65.14
2018-05-18T04:34:44.881Z,65.23
2018-05-18T04:35:44.892Z,65.04
2018-05-18T04:36:44.861Z,64.95
2018-05-18T04:37:44.855Z,64.79
2018-05-18T04:38:44.855Z,64.85
2018-05-18T04:39:44.874Z,64.88
2018-05-18T04:40:45.984Z,64.69
2018-05-18T04:41:44.932Z,64.12
2018-05-18T04:42:44.941Z,64.31
2018-05-18T04:43:44.904Z,64.50
2018-05-18T04:44:44.939Z,64.22
2018-05-18T04:45:44.999Z,64.12
2018-05-18T04:46:44.983Z,64.31
2018-05-18T04:47:44.977Z,63.93
2018-05-18T04:48:45.021Z,64.12
2018-05-18T04:49:44.989Z,64.12
2018-05-18T04:50:45.293Z,64.40
2018-05-18T04:51:45.045Z,64.40
2018-05-18T04:52:45.039Z,64.31
2018-05-18T04:53:45.050Z,64.12
2018-05-18T04:54:45.060Z,64.02
2018-05-18T04:55:45.072Z,64.31
2018-05-18T04:56:45.044Z,63.93
2018-05-18T04:57:45.041Z,64.31
2018-05-18T04:58:45.158Z,64.88
2018-05-18T04:59:45.160Z,64.69
2018-05-18T05:00:45.246Z,64.95
2018-05-18T05:01:45.128Z,64.88
2018-05-18T05:02:45.119Z,64.79
2018-05-18T05:03:45.215Z,64.85
2018-05-18T05:04:45.135Z,64.95
2018-05-18T05:05:45.144Z,65.33
2018-05-18T05:06:45.148Z,65.33
2018-05-18T05:07:45.163Z,65.42
2018-05-18T05:08:45.171Z,65.61
2018-05-18T05:09:45.219Z,65.23
2018-05-18T05:10:45.281Z,65.36
2018-05-18T05:11:45.191Z,65.14
2018-05-18T05:12:45.256Z,65.23
2018-05-18T05:13:45.210Z,65.26
2018-05-18T05:14:45.261Z,65.04
2018-05-18T05:15:45.255Z,65.33
2018-05-18T05:16:45.247Z,65.17
2018-05-18T05:17:45.801Z,65.17
2018-05-18T05:18:45.361Z,65.33
2018-05-18T05:19:45.351Z,65.26
2018-05-18T05:20:45.303Z,65.71
2018-05-18T05:21:45.401Z,65.33
2018-05-18T05:22:45.321Z,65.61
2018-05-18T05:23:45.393Z,65.61
2018-05-18T05:24:45.382Z,65.71
2018-05-18T05:25:45.405Z,65.90
2018-05-18T05:26:45.423Z,66.09
2018-05-18T05:27:46.023Z,65.71
2018-05-18T05:28:45.376Z,65.90
2018-05-18T05:29:45.403Z,66.28
2018-05-18T05:30:45.436Z,66.28
2018-05-18T05:31:45.540Z,66.38
2018-05-18T05:32:45.422Z,66.67
2018-05-18T05:33:45.435Z,66.57
2018-05-18T05:34:45.453Z,66.54
2018-05-18T05:35:45.756Z,66.57
2018-05-18T05:36:45.523Z,66.96
2018-05-18T05:37:45.477Z,65.90
2018-05-18T05:38:45.475Z,66.09
2018-05-18T05:39:45.490Z,66.19
2018-05-18T05:40:45.536Z,66.76
2018-05-18T05:41:45.494Z,66.57
2018-05-18T05:42:45.564Z,66.47
2018-05-18T05:43:45.518Z,66.57
2018-05-18T05:44:45.533Z,66.76
2018-05-18T05:45:46.060Z,67.34
2018-05-18T05:46:45.663Z,66.57
2018-05-18T05:47:45.570Z,66.47
2018-05-18T05:48:45.590Z,66.57
2018-05-18T05:49:45.607Z,66.67
2018-05-18T05:50:45.703Z,66.57
2018-05-18T05:51:45.658Z,66.86
2018-05-18T05:52:45.623Z,67.43
2018-05-18T05:53:45.632Z,67.05
2018-05-18T05:54:45.661Z,67.43
2018-05-18T05:55:45.944Z,67.14
2018-05-18T05:56:45.689Z,67.69
2018-05-18T05:57:45.663Z,67.53
2018-05-18T05:58:45.663Z,68.01
2018-05-18T05:59:45.672Z,67.63
2018-05-18T06:00:45.681Z,67.72
2018-05-18T06:01:45.755Z,67.34
2018-05-18T06:02:45.819Z,67.43
2018-05-18T06:03:45.712Z,67.53
2018-05-18T06:04:45.716Z,66.76
2018-05-18T06:05:46.277Z,66.76
2018-05-18T06:06:45.743Z,67.24
2018-05-18T06:07:45.784Z,67.14
2018-05-18T06:08:45.773Z,67.43
2018-05-18T06:09:45.775Z,67.14
2018-05-18T06:10:45.825Z,67.05
2018-05-18T06:11:45.880Z,67.24
2018-05-18T06:12:45.891Z,67.24
2018-05-18T06:13:45.851Z,66.38
2018-05-18T06:14:45.827Z,66.99
2018-05-18T06:15:45.849Z,65.94
2018-05-18T06:16:45.897Z,66.13
2018-05-18T06:17:45.897Z,66.51
2018-05-18T06:18:46.115Z,66.41
2018-05-18T06:19:45.872Z,66.41
2018-05-18T06:20:45.928Z,66.32
2018-05-18T06:21:45.905Z,66.22
2018-05-18T06:22:45.893Z,65.45
2018-05-18T06:23:45.930Z,65.74
2018-05-18T06:24:45.952Z,65.55
2018-05-18T06:25:45.930Z,65.26
2018-05-18T06:26:46.109Z,65.36
2018-05-18T06:27:45.962Z,65.26
2018-05-18T06:28:46.334Z,65.26
2018-05-18T06:29:46.002Z,64.98
2018-05-18T06:30:46.012Z,64.79
2018-05-18T06:31:46.000Z,64.69
2018-05-18T06:32:46.100Z,64.82
2018-05-18T06:33:46.032Z,64.79
2018-05-18T06:34:46.139Z,64.92
2018-05-18T06:35:48.876Z,64.72
2018-05-18T06:36:46.041Z,64.92
2018-05-18T06:37:46.061Z,64.92
2018-05-18T06:38:46.659Z,64.92
2018-05-18T06:39:46.116Z,64.88
2018-05-18T06:40:46.110Z,65.01
2018-05-18T06:41:46.218Z,64.82
2018-05-18T06:42:46.154Z,64.92
2018-05-18T06:43:46.163Z,64.43
2018-05-18T06:44:46.178Z,64.34
2018-05-18T06:45:46.169Z,64.34
2018-05-18T06:46:46.459Z,64.15
2018-05-18T06:47:46.175Z,64.43
2018-05-18T06:48:46.191Z,64.25
2018-05-18T06:49:46.187Z,64.25
2018-05-18T06:50:46.217Z,63.86
2018-05-18T06:51:46.928Z,63.86
2018-05-18T06:52:46.253Z,63.96
2018-05-18T06:53:46.237Z,64.05
2018-05-18T06:54:46.435Z,63.96
2018-05-18T06:55:46.259Z,64.15
2018-05-18T06:56:46.249Z,63.67
2018-05-18T06:57:46.301Z,63.86
2018-05-18T06:58:46.488Z,63.67
2018-05-18T06:59:46.312Z,63.67
2018-05-18T07:00:46.323Z,63.76
2018-05-18T07:01:46.308Z,64.15
2018-05-18T07:02:46.443Z,64.15
2018-05-18T07:03:46.423Z,63.76
2018-05-18T07:04:46.703Z,64.15
2018-05-18T07:05:46.368Z,63.67
2018-05-18T07:06:46.357Z,63.57
2018-05-18T07:07:46.440Z,63.39
2018-05-18T07:08:46.400Z,63.86
2018-05-18T07:09:46.533Z,63.96
2018-05-18T07:10:46.480Z,63.48
2018-05-18T07:11:46.420Z,63.51
2018-05-18T07:12:46.441Z,62.84
2018-05-18T07:13:46.457Z,63.42
2018-05-18T07:14:46.519Z,63.60
2018-05-18T07:15:46.470Z,63.42
2018-05-18T07:16:46.538Z,62.93
2018-05-18T07:17:46.627Z,63.32
2018-05-18T07:18:46.494Z,63.32
2018-05-18T07:19:46.536Z,63.32
2018-05-18T07:20:46.507Z,62.93
2018-05-18T07:21:46.520Z,63.13
2018-05-18T07:22:46.564Z,62.55
2018-05-18T07:23:46.531Z,62.55
2018-05-18T07:24:46.543Z,62.87
2018-05-18T07:25:46.564Z,62.84
2018-05-18T07:26:46.657Z,62.96
2018-05-18T07:27:47.331Z,62.68
2018-05-18T07:28:46.585Z,62.30
2018-05-18T07:29:46.624Z,62.10
2018-05-18T07:30:46.793Z,62.59
2018-05-18T07:31:46.632Z,61.91
2018-05-18T07:32:46.713Z,61.82
2018-05-18T07:33:46.686Z,61.43
2018-05-18T07:34:46.663Z,61.56
2018-05-18T07:35:46.663Z,61.56
2018-05-18T07:36:46.711Z,61.85
2018-05-18T07:37:46.689Z,61.56
2018-05-18T07:38:46.803Z,61.56
2018-05-18T07:39:46.702Z,60.70
2018-05-18T07:40:46.967Z,61.08
2018-05-18T07:41:46.763Z,60.41
2018-05-18T07:42:46.768Z,60.60
2018-05-18T07:43:46.856Z,60.22
2018-05-18T07:44:46.762Z,60.03
2018-05-18T07:45:46.774Z,60.70
2018-05-18T07:46:46.833Z,60.44
2018-05-18T07:47:46.827Z,60.05
2018-05-18T07:48:46.817Z,59.86
2018-05-18T07:49:46.825Z,60.35
2018-05-18T07:50:46.836Z,60.05
2018-05-18T07:51:46.876Z,60.60
2018-05-18T07:52:46.872Z,60.05
2018-05-18T07:53:46.982Z,60.63
2018-05-18T07:54:46.904Z,60.35
2018-05-18T07:55:46.905Z,60.53
2018-05-18T07:56:46.968Z,60.53
2018-05-18T07:57:46.923Z,60.63
2018-05-18T07:58:46.940Z,59.96
2018-05-18T07:59:46.936Z,59.96
2018-05-18T08:00:46.946Z,59.58
2018-05-18T08:01:47.004Z,59.58
2018-05-18T08:02:47.013Z,58.91
2018-05-18T08:03:46.995Z,59.48
2018-05-18T08:04:47.013Z,59.29
2018-05-18T08:05:47.039Z,59.77
2018-05-18T08:06:47.305Z,59.67
2018-05-18T08:07:47.111Z,59.58
2018-05-18T08:08:47.043Z,59.86
2018-05-18T08:09:47.068Z,60.05
2018-05-18T08:10:47.073Z,59.77
2018-05-18T08:11:47.077Z,59.67
2018-05-18T08:12:47.133Z,59.80
2018-05-18T08:13:47.117Z,59.80
2018-05-18T08:14:47.128Z,59.89
2018-05-18T08:15:47.149Z,59.41
2018-05-18T08:16:47.179Z,59.70
2018-05-18T08:17:47.182Z,59.61
2018-05-18T08:18:47.164Z,58.74
2018-05-18T08:19:47.532Z,58.45
2018-05-18T08:20:47.201Z,58.64
2018-05-18T08:21:47.194Z,58.17
2018-05-18T08:22:47.217Z,57.59
2018-05-18T08:23:47.208Z,57.30
2018-05-18T08:24:47.264Z,57.88
2018-05-18T08:25:47.259Z,57.40
2018-05-18T08:26:47.288Z,57.88
2018-05-18T08:27:47.317Z,58.07
2018-05-18T08:28:47.290Z,57.68
2018-05-18T08:29:47.355Z,57.40
2018-05-18T08:30:47.355Z,58.07
2018-05-18T08:31:47.355Z,58.45
2018-05-18T08:32:47.664Z,57.71
2018-05-18T08:33:47.332Z,57.62
2018-05-18T08:34:47.344Z,57.81
2018-05-18T08:35:47.451Z,57.71
2018-05-18T08:36:47.390Z,58.00
2018-05-18T08:37:47.399Z,57.90
2018-05-18T08:38:47.414Z,56.56
2018-05-18T08:39:47.421Z,56.08
2018-05-18T08:40:47.464Z,56.46
2018-05-18T08:41:47.480Z,56.66
2018-05-18T08:42:47.465Z,55.89
2018-05-18T08:43:47.455Z,56.95
2018-05-18T08:44:47.463Z,56.18
2018-05-18T08:45:47.739Z,56.27
2018-05-18T08:46:47.523Z,56.37
2018-05-18T08:47:47.537Z,56.27
2018-05-18T08:48:47.582Z,57.04
2018-05-18T08:49:47.548Z,56.37
2018-05-18T08:50:47.543Z,56.66
2018-05-18T08:51:47.559Z,56.56
2018-05-18T08:52:47.582Z,56.37
2018-05-18T08:53:47.619Z,56.46
2018-05-18T08:54:47.601Z,56.08
2018-05-18T08:55:47.599Z,56.56
2018-05-18T08:56:47.632Z,56.85
2018-05-18T08:57:47.647Z,55.91
2018-05-18T08:58:47.640Z,57.07
2018-05-18T08:59:47.717Z,56.08
2018-05-18T09:00:47.673Z,56.08
2018-05-18T09:01:47.679Z,55.99
2018-05-18T09:02:47.722Z,55.89
2018-05-18T09:03:47.689Z,56.18
2018-05-18T09:04:47.754Z,55.91
2018-05-18T09:05:47.703Z,55.89
2018-05-18T09:06:47.735Z,56.30
2018-05-18T09:07:47.741Z,56.30
2018-05-18T09:08:47.775Z,56.01
2018-05-18T09:09:47.820Z,55.91
2018-05-18T09:10:47.780Z,56.40
2018-05-18T09:11:47.797Z,56.01
2018-05-18T09:12:47.976Z,56.68
2018-05-18T09:13:47.820Z,55.34
2018-05-18T09:14:47.860Z,55.44
2018-05-18T09:15:47.945Z,55.82
2018-05-18T09:16:47.857Z,55.91
2018-05-18T09:17:47.962Z,55.91
2018-05-18T09:18:47.873Z,55.53
2018-05-18T09:19:47.924Z,55.63
2018-05-18T09:20:47.930Z,55.05
2018-05-18T09:21:47.986Z,54.96
2018-05-18T09:22:48.012Z,54.96
2018-05-18T09:23:47.931Z,55.15
2018-05-18T09:24:48.002Z,55.05
2018-05-18T09:25:47.953Z,54.96
2018-05-18T09:26:48.012Z,55.73
2018-05-18T09:27:48.002Z,55.15
2018-05-18T09:28:48.246Z,55.53
2018-05-18T09:29:48.044Z,55.63
2018-05-18T09:30:48.013Z,55.15
2018-05-18T09:31:48.035Z,55.15
2018-05-18T09:32:48.060Z,55.44
2018-05-18T09:33:48.050Z,56.21
2018-05-18T09:34:48.499Z,56.21
2018-05-18T09:35:48.124Z,55.44
2018-05-18T09:36:48.155Z,55.73
2018-05-18T09:37:48.113Z,56.21
2018-05-18T09:38:48.121Z,55.44
2018-05-18T09:39:48.337Z,55.27
2018-05-18T09:40:48.185Z,54.99
2018-05-18T09:41:49.845Z,54.41
2018-05-18T09:42:48.160Z,54.22
2018-05-18T09:43:48.237Z,54.38
2018-05-18T09:44:48.356Z,54.60
2018-05-18T09:45:48.212Z,54.09
2018-05-18T09:46:48.273Z,54.00
2018-05-18T09:47:48.960Z,54.28
2018-05-18T09:48:48.256Z,54.19
2018-05-18T09:49:48.248Z,54.67
2018-05-18T09:50:48.270Z,54.38
2018-05-18T09:51:48.355Z,54.19
2018-05-18T09:52:48.367Z,54.86
2018-05-18T09:53:48.326Z,54.86
2018-05-18T09:54:48.361Z,55.05
2018-05-18T09:55:48.333Z,55.15
2018-05-18T09:56:48.385Z,55.24
2018-05-18T09:57:48.846Z,54.96
2018-05-18T09:58:48.407Z,55.15
2018-05-18T09:59:48.401Z,55.73
2018-05-18T10:00:48.636Z,54.77
2018-05-18T10:01:48.462Z,54.96
2018-05-18T10:02:48.414Z,55.05
2018-05-18T10:03:48.470Z,54.96
2018-05-18T10:04:48.470Z,55.24
2018-05-18T10:05:48.455Z,54.67
2018-05-18T10:06:48.540Z,55.05
2018-05-18T10:07:48.458Z,55.05
2018-05-18T10:08:48.480Z,55.05
2018-05-18T10:09:48.520Z,55.73
2018-05-18T10:10:48.536Z,55.73
2018-05-18T10:11:49.530Z,55.82
2018-05-18T10:12:48.611Z,56.21
2018-05-18T10:13:48.825Z,55.53
2018-05-18T10:14:48.581Z,56.01
2018-05-18T10:15:48.609Z,55.24
2018-05-18T10:16:48.771Z,54.96
2018-05-18T10:17:48.588Z,54.96
2018-05-18T10:18:48.649Z,55.24
2018-05-18T10:19:48.624Z,55.44
2018-05-18T10:20:48.668Z,55.15
2018-05-18T10:21:48.655Z,55.44
2018-05-18T10:22:48.667Z,55.24
2018-05-18T10:23:48.674Z,55.24
2018-05-18T10:24:48.681Z,54.86
2018-05-18T10:25:48.749Z,54.47
2018-05-18T10:26:48.768Z,55.05
2018-05-18T10:27:48.767Z,54.57
2018-05-18T10:28:48.748Z,54.57
2018-05-18T10:29:49.377Z,54.67
2018-05-18T10:30:48.766Z,54.57
2018-05-18T10:31:49.350Z,54.47
2018-05-18T10:32:48.915Z,54.86
2018-05-18T10:33:49.019Z,54.96
2018-05-18T10:34:48.827Z,54.47
2018-05-18T10:35:48.816Z,55.05
2018-05-18T10:36:48.910Z,54.86
2018-05-18T10:37:48.958Z,54.77
2018-05-18T10:38:48.848Z,54.57
2018-05-18T10:39:48.860Z,54.77
2018-05-18T10:40:48.887Z,54.47
2018-05-18T10:41:48.913Z,55.05
2018-05-18T10:42:48.981Z,54.77
2018-05-18T10:43:49.033Z,55.15
2018-05-18T10:44:49.002Z,54.86
2018-05-18T10:45:48.986Z,55.05
2018-05-18T10:46:48.941Z,54.86
2018-05-18T10:47:48.994Z,54.67
2018-05-18T10:48:50.027Z,54.09
2018-05-18T10:49:49.027Z,54.38
2018-05-18T10:50:49.026Z,54.89
2018-05-18T10:51:49.091Z,54.96
2018-05-18T10:52:49.026Z,54.69
2018-05-18T10:53:49.044Z,54.89
2018-05-18T10:54:49.110Z,54.89
2018-05-18T10:55:49.059Z,54.69
2018-05-18T10:56:49.062Z,54.31
2018-05-18T10:57:49.129Z,54.02
2018-05-18T10:58:49.116Z,53.83
2018-05-18T10:59:49.267Z,53.45
2018-05-18T11:00:49.129Z,53.45
2018-05-18T11:01:49.167Z,53.35
2018-05-18T11:02:49.143Z,53.92
2018-05-18T11:03:49.200Z,53.83
2018-05-18T11:04:50.353Z,53.16
2018-05-18T11:05:49.252Z,53.35
2018-05-18T11:06:49.204Z,53.06
2018-05-18T11:07:49.306Z,53.35
2018-05-18T11:08:49.210Z,52.97
2018-05-18T11:09:49.300Z,52.77
2018-05-18T11:10:49.321Z,52.68
2018-05-18T11:11:49.256Z,52.87
2018-05-18T11:12:49.358Z,53.06
2018-05-18T11:13:49.411Z,53.16
2018-05-18T11:14:49.294Z,53.35
2018-05-18T11:15:49.298Z,53.06
2018-05-18T11:16:49.342Z,53.64
2018-05-18T11:17:49.368Z,53.25
2018-05-18T11:18:49.423Z,53.16
2018-05-18T11:19:49.369Z,52.77
2018-05-18T11:20:49.427Z,53.74
2018-05-18T11:21:49.381Z,53.06
2018-05-18T11:22:49.472Z,53.16
2018-05-18T11:23:49.568Z,53.54
2018-05-18T11:24:49.427Z,52.97
2018-05-18T11:25:49.474Z,52.97
2018-05-18T11:26:50.362Z,53.16
2018-05-18T11:27:49.486Z,53.16
2018-05-18T11:28:49.460Z,53.16
2018-05-18T11:29:49.604Z,53.16
2018-05-18T11:30:50.021Z,53.74
2018-05-18T11:31:49.535Z,53.74
2018-05-18T11:32:49.511Z,52.87
2018-05-18T11:33:49.590Z,53.74
2018-05-18T11:34:49.601Z,53.35
2018-05-18T11:35:49.550Z,53.92
2018-05-18T11:36:49.617Z,53.35
2018-05-18T11:37:49.570Z,53.25
2018-05-18T11:38:49.609Z,53.61
2018-05-18T11:39:49.607Z,53.70
2018-05-18T11:40:49.623Z,53.45
2018-05-18T11:41:49.654Z,53.74
2018-05-18T11:42:50.472Z,54.12
2018-05-18T11:43:49.644Z,54.79
2018-05-18T11:44:49.778Z,54.22
2018-05-18T11:45:49.884Z,54.41
2018-05-18T11:46:49.744Z,53.92
2018-05-18T11:47:49.729Z,54.12
2018-05-18T11:48:49.717Z,54.60
2018-05-18T11:49:49.734Z,53.92
2018-05-18T11:50:49.736Z,53.74
2018-05-18T11:51:49.793Z,53.45
2018-05-18T11:52:49.797Z,52.87
2018-05-18T11:53:49.802Z,53.35
2018-05-18T11:54:49.791Z,54.02
2018-05-18T11:55:49.870Z,53.54
2018-05-18T11:56:49.815Z,53.45
2018-05-18T11:57:49.840Z,53.45
2018-05-18T11:58:49.860Z,53.45
2018-05-18T11:59:49.868Z,53.16
2018-05-18T12:00:49.895Z,52.58
2018-05-18T12:01:49.880Z,53.13
2018-05-18T12:02:49.984Z,53.23
2018-05-18T12:03:49.910Z,53.23
2018-05-18T12:04:50.370Z,53.42
2018-05-18T12:05:49.920Z,53.70
2018-05-18T12:06:49.933Z,53.42
2018-05-18T12:07:50.547Z,54.00
2018-05-18T12:08:49.993Z,54.77
2018-05-18T12:09:49.972Z,54.77
2018-05-18T12:10:49.979Z,54.47
2018-05-18T12:11:50.007Z,54.86
2018-05-18T12:12:50.036Z,54.67
2018-05-18T12:13:50.075Z,54.77
2018-05-18T12:14:50.053Z,54.67
2018-05-18T12:15:50.083Z,54.77
2018-05-18T12:16:50.067Z,54.86
2018-05-18T12:17:50.095Z,55.15
2018-05-18T12:18:50.124Z,54.96
2018-05-18T12:19:50.420Z,54.77
2018-05-18T12:20:50.138Z,55.34
2018-05-18T12:21:50.121Z,54.77
2018-05-18T12:22:50.126Z,54.86
2018-05-18T12:23:50.242Z,54.77
2018-05-18T12:24:50.177Z,55.05
2018-05-18T12:25:50.172Z,54.57
2018-05-18T12:26:50.178Z,54.38
2018-05-18T12:27:50.198Z,54.47
2018-05-18T12:28:50.700Z,55.05
2018-05-18T12:29:50.231Z,55.05
2018-05-18T12:30:50.257Z,56.01
2018-05-18T12:31:50.255Z,55.24
2018-05-18T12:32:50.266Z,54.96
2018-05-18T12:33:50.434Z,55.15
2018-05-18T12:34:50.278Z,55.82
2018-05-18T12:35:50.286Z,55.82
2018-05-18T12:36:50.375Z,55.82
2018-05-18T12:37:50.316Z,55.15
2018-05-18T12:38:50.369Z,55.15
2018-05-18T12:39:50.663Z,55.24
2018-05-18T12:40:50.351Z,54.77
2018-05-18T12:41:50.384Z,54.86
2018-05-18T12:42:50.378Z,54.96
2018-05-18T12:43:50.594Z,55.15
2018-05-18T12:44:50.404Z,55.34
2018-05-18T12:45:50.494Z,54.86
2018-05-18T12:46:50.428Z,54.77
2018-05-18T12:47:50.440Z,54.96
2018-05-18T12:48:50.489Z,54.28
2018-05-18T12:49:50.472Z,54.28
2018-05-18T12:50:50.520Z,53.32
2018-05-18T12:51:50.513Z,53.23
2018-05-18T12:52:50.645Z,53.70